createdAt,value
2022-10-07T00:01:38.754Z,98339.13
2022-10-07T00:04:05.437Z,98342.44
2022-10-07T00:06:32.055Z,98339.84
2022-10-07T00:08:59.869Z,98345.88
2022-10-07T00:11:27.290Z,98333.06
2022-10-07T00:13:55.050Z,98345.41
2022-10-07T00:16:24.672Z,98338.28
2022-10-07T00:18:51.940Z,98336.50
2022-10-07T00:21:18.992Z,98335.56
2022-10-07T00:23:46.516Z,98337.47
2022-10-07T00:26:14.328Z,98333.06
2022-10-07T00:28:41.171Z,98330.56
2022-10-07T00:31:09.471Z,98333.91
2022-10-07T00:33:37.799Z,98332.22
2022-10-07T00:36:18.003Z,98326.19
2022-10-07T00:38:44.515Z,98322.84
2022-10-07T00:41:18.727Z,98316.81
2022-10-07T00:43:45.209Z,98317.75
2022-10-07T00:46:13.259Z,98313.72
2022-10-07T00:48:39.738Z,98313.94
2022-10-07T00:51:06.369Z,98307.28
2022-10-07T00:53:33.178Z,98310.84
2022-10-07T00:56:02.077Z,98302.28
2022-10-07T00:58:32.339Z,98297.78
2022-10-07T01:00:58.905Z,98301.56
2022-10-07T01:03:25.389Z,98290.88
2022-10-07T01:05:51.826Z,98284.44
2022-10-07T01:08:18.355Z,98284.09
2022-10-07T01:10:48.973Z,98285.63
2022-10-07T01:13:35.840Z,98283.63
2022-10-07T01:16:12.772Z,98278.41
2022-10-07T01:18:52.779Z,98276.97
2022-10-07T01:21:22.235Z,98270.56
2022-10-07T01:23:51.717Z,98273.53
2022-10-07T01:26:21.274Z,98280.00
2022-10-07T01:28:47.648Z,98263.41
2022-10-07T01:31:16.917Z,98266.84
2022-10-07T01:33:43.451Z,98258.06
2022-10-07T01:36:10.914Z,98258.31
2022-10-07T01:38:38.187Z,98250.00
2022-10-07T01:41:15.209Z,98251.41
2022-10-07T01:43:41.977Z,98253.56
2022-10-07T01:46:09.892Z,98245.53
2022-10-07T01:48:36.396Z,98239.13
2022-10-07T01:51:02.794Z,98242.56
2022-10-07T01:53:36.547Z,98230.09
2022-10-07T01:56:11.945Z,98227.00
2022-10-07T01:58:56.446Z,98225.47
2022-10-07T02:01:26.022Z,98220.34
2022-10-07T02:03:58.739Z,98226.47
2022-10-07T02:06:51.797Z,98217.31
2022-10-07T02:09:41.629Z,98212.47
2022-10-07T02:12:15.223Z,98215.50
2022-10-07T02:14:49.657Z,98212.41
2022-10-07T02:17:18.263Z,98209.81
2022-10-07T02:20:03.331Z,98207.19
2022-10-07T02:22:29.777Z,98203.63
2022-10-07T02:24:59.142Z,98196.03
2022-10-07T02:27:28.116Z,98195.34
2022-10-07T02:29:55.134Z,98191.78
2022-10-07T02:32:22.388Z,98183.00
2022-10-07T02:34:49.084Z,98181.59
2022-10-07T02:37:19.420Z,98170.44
2022-10-07T02:39:46.816Z,98172.00
2022-10-07T02:42:16.824Z,98180.44
2022-10-07T02:44:56.535Z,98173.31
2022-10-07T02:47:41.210Z,98167.63
2022-10-07T02:50:08.738Z,98176.66
2022-10-07T02:52:35.195Z,98166.88
2022-10-07T02:55:03.791Z,98163.22
2022-10-07T02:57:31.675Z,98169.72
2022-10-07T02:59:58.055Z,98162.22
2022-10-07T03:02:30.315Z,98153.91
2022-10-07T03:04:57.543Z,98146.91
2022-10-07T03:07:25.100Z,98154.75
2022-10-07T03:09:51.507Z,98154.75
2022-10-07T03:12:17.929Z,98155.34
2022-10-07T03:14:44.998Z,98153.19
2022-10-07T03:17:11.421Z,98150.81
2022-10-07T03:19:38.125Z,98150.00
2022-10-07T03:22:04.582Z,98148.44
2022-10-07T03:24:31.192Z,98145.00
2022-10-07T03:26:57.666Z,98143.13
2022-10-07T03:29:26.165Z,98135.28
2022-10-07T03:31:55.418Z,98139.56
2022-10-07T03:34:23.162Z,98141.00
2022-10-07T03:36:49.601Z,98145.25
2022-10-07T03:39:15.971Z,98138.25
2022-10-07T03:41:42.406Z,98135.78
2022-10-07T03:44:08.851Z,98138.50
2022-10-07T03:46:35.350Z,98133.28
2022-10-07T03:49:02.257Z,98129.50
2022-10-07T03:51:28.687Z,98132.34
2022-10-07T03:53:57.480Z,98138.72
2022-10-07T03:56:24.140Z,98129.38
2022-10-07T03:58:50.587Z,98119.13
2022-10-07T04:01:17.534Z,98118.94
2022-10-07T04:03:43.975Z,98120.97
2022-10-07T04:06:10.438Z,98116.34
2022-10-07T04:08:36.995Z,98119.78
2022-10-07T04:11:03.889Z,98118.22
2022-10-07T04:13:30.309Z,98112.38
2022-10-07T04:15:56.811Z,98118.47
2022-10-07T04:18:23.487Z,98116.44
2022-10-07T04:20:49.925Z,98113.25
2022-10-07T04:23:16.467Z,98117.03
2022-10-07T04:25:43.845Z,98115.16
2022-10-07T04:28:17.838Z,98114.09
2022-10-07T04:30:44.380Z,98106.38
2022-10-07T04:33:11.516Z,98099.75
2022-10-07T04:35:38.976Z,98111.22
2022-10-07T04:38:07.880Z,98106.22
2022-10-07T04:40:34.250Z,98110.50
2022-10-07T04:43:20.936Z,98104.56
2022-10-07T04:45:47.926Z,98104.66
2022-10-07T04:48:14.663Z,98101.22
2022-10-07T04:50:41.102Z,98101.94
2022-10-07T04:53:08.072Z,98098.91
2022-10-07T04:55:38.171Z,98097.97
2022-10-07T04:58:04.599Z,98099.50
2022-10-07T05:00:31.313Z,98095.97
2022-10-07T05:02:57.748Z,98090.75
2022-10-07T05:05:25.835Z,98090.50
2022-10-07T05:07:52.602Z,98087.56
2022-10-07T05:10:19.276Z,98082.16
2022-10-07T05:12:45.731Z,98084.63
2022-10-07T05:15:12.330Z,98082.88
2022-10-07T05:17:41.133Z,98073.16
2022-10-07T05:20:08.460Z,98078.72
2022-10-07T05:22:34.873Z,98080.69
2022-10-07T05:25:01.292Z,98071.09
2022-10-07T05:27:27.707Z,98079.53
2022-10-07T05:29:54.100Z,98074.31
2022-10-07T05:32:21.246Z,98077.41
2022-10-07T05:34:47.683Z,98073.28
2022-10-07T05:37:15.211Z,98075.41
2022-10-07T05:39:41.623Z,98068.28
2022-10-07T05:42:08.198Z,98062.91
2022-10-07T05:44:34.639Z,98066.41
2022-10-07T05:47:02.066Z,98069.09
2022-10-07T05:49:28.462Z,98064.97
2022-10-07T05:51:54.927Z,98072.78
2022-10-07T05:54:21.700Z,98063.31
2022-10-07T05:56:48.436Z,98067.13
2022-10-07T05:59:14.858Z,98060.19
2022-10-07T06:01:42.856Z,98057.44
2022-10-07T06:04:09.379Z,98048.06
2022-10-07T06:06:35.884Z,98048.69
2022-10-07T06:09:20.871Z,98042.53
2022-10-07T06:12:06.042Z,98053.06
2022-10-07T06:14:32.426Z,98045.38
2022-10-07T06:16:58.964Z,98042.53
2022-10-07T06:19:25.520Z,98038.28
2022-10-07T06:21:52.063Z,98040.88
2022-10-07T06:24:18.494Z,98051.72
2022-10-07T06:26:44.948Z,98050.31
2022-10-07T06:29:11.381Z,98045.72
2022-10-07T06:31:37.796Z,98044.88
2022-10-07T06:34:04.274Z,98045.94
2022-10-07T06:36:30.737Z,98043.78
2022-10-07T06:38:57.191Z,98041.56
2022-10-07T06:41:23.886Z,98047.88
2022-10-07T06:43:50.271Z,98041.75
2022-10-07T06:46:17.541Z,98043.88
2022-10-07T06:48:45.909Z,98038.47
2022-10-07T06:51:13.205Z,98043.66
2022-10-07T06:53:39.638Z,98053.09
2022-10-07T06:56:06.151Z,98040.47
2022-10-07T06:58:32.778Z,98046.53
2022-10-07T07:01:02.370Z,98043.97
2022-10-07T07:03:29.096Z,98037.63
2022-10-07T07:05:55.684Z,98038.78
2022-10-07T07:08:22.743Z,98037.28
2022-10-07T07:10:49.168Z,98035.34
2022-10-07T07:13:15.828Z,98043.63
2022-10-07T07:15:42.483Z,98044.00
2022-10-07T07:18:09.337Z,98045.09
2022-10-07T07:20:38.854Z,98041.75
2022-10-07T07:23:05.934Z,98042.78
2022-10-07T07:25:32.772Z,98042.50
2022-10-07T07:28:02.367Z,98034.31
2022-10-07T07:30:29.206Z,98035.25
2022-10-07T07:32:55.776Z,98034.09
2022-10-07T07:35:22.743Z,98042.91
2022-10-07T07:37:50.397Z,98036.75
2022-10-07T07:40:17.417Z,98030.91
2022-10-07T07:42:45.324Z,98037.44
2022-10-07T07:45:11.858Z,98032.41
2022-10-07T07:47:38.386Z,98032.59
2022-10-07T07:50:05.614Z,98035.84
2022-10-07T07:52:32.337Z,98035.41
2022-10-07T07:54:59.200Z,98034.88
2022-10-07T07:57:26.316Z,98032.34
2022-10-07T07:59:52.940Z,98036.28
2022-10-07T08:02:20.418Z,98024.00
2022-10-07T08:04:46.948Z,98031.47
2022-10-07T08:07:13.402Z,98019.97
2022-10-07T08:09:40.040Z,98020.50
2022-10-07T08:12:06.885Z,98019.72
2022-10-07T08:14:33.523Z,98014.25
2022-10-07T08:17:01.078Z,98018.66
2022-10-07T08:19:29.450Z,98008.09
2022-10-07T08:21:56.551Z,98006.38
2022-10-07T08:24:24.988Z,98010.19
2022-10-07T08:26:51.803Z,98007.72
2022-10-07T08:29:18.277Z,98003.66
2022-10-07T08:31:44.736Z,98001.81
2022-10-07T08:34:11.482Z,98001.78
2022-10-07T08:36:38.071Z,97992.75
2022-10-07T08:39:04.674Z,97987.88
2022-10-07T08:41:36.444Z,97993.06
2022-10-07T08:44:18.201Z,97992.00
2022-10-07T08:47:06.527Z,97980.97
2022-10-07T08:49:36.067Z,97986.59
2022-10-07T08:52:21.306Z,97986.63
2022-10-07T08:54:47.743Z,97990.66
2022-10-07T08:57:16.284Z,97988.44
2022-10-07T08:59:44.827Z,97980.34
2022-10-07T09:02:20.522Z,97984.06
2022-10-07T09:05:05.741Z,97981.66
2022-10-07T09:07:40.369Z,97983.00
2022-10-07T09:10:09.847Z,97971.53
2022-10-07T09:12:37.224Z,97967.63
2022-10-07T09:15:03.914Z,97978.41
2022-10-07T09:17:35.918Z,97971.47
2022-10-07T09:20:04.585Z,97972.16
2022-10-07T09:22:31.889Z,97964.59
2022-10-07T09:25:17.111Z,97953.97
2022-10-07T09:27:43.825Z,97966.06
2022-10-07T09:30:12.971Z,97960.22
2022-10-07T09:32:40.783Z,97958.78
2022-10-07T09:35:11.559Z,97949.22
2022-10-07T09:37:37.927Z,97952.78
2022-10-07T09:40:20.705Z,97950.72
2022-10-07T09:42:48.563Z,97948.41
2022-10-07T09:45:22.271Z,97947.97
2022-10-07T09:47:52.801Z,97951.91
2022-10-07T09:50:39.639Z,97942.72
2022-10-07T09:53:12.274Z,97942.72
2022-10-07T09:55:40.159Z,97939.03
2022-10-07T09:58:09.134Z,97929.13
2022-10-07T10:00:41.439Z,97928.28
2022-10-07T10:03:07.935Z,97925.16
2022-10-07T10:05:35.547Z,97921.91
2022-10-07T10:08:03.914Z,97919.16
2022-10-07T10:10:31.427Z,97921.88
2022-10-07T10:12:58.500Z,97919.22
2022-10-07T10:15:26.836Z,97911.09
2022-10-07T10:17:54.790Z,97917.63
2022-10-07T10:20:24.232Z,97910.28
2022-10-07T10:22:50.963Z,97914.25
2022-10-07T10:25:56.446Z,97915.00
2022-10-07T10:28:22.915Z,97903.75
2022-10-07T10:30:55.619Z,97900.84
2022-10-07T10:33:32.756Z,97887.13
2022-10-07T10:36:05.287Z,97886.91
2022-10-07T10:38:33.255Z,97885.16
2022-10-07T10:41:04.194Z,97872.84
2022-10-07T10:43:37.701Z,97864.59
2022-10-07T10:46:22.369Z,97860.78
2022-10-07T10:49:09.464Z,97860.94
2022-10-07T10:51:53.227Z,97857.06
2022-10-07T10:54:24.762Z,97849.75
2022-10-07T10:57:29.234Z,97852.59
2022-10-07T11:00:15.239Z,97847.59
2022-10-07T11:02:53.869Z,97850.22
2022-10-07T11:05:24.142Z,97830.94
2022-10-07T11:07:51.397Z,97835.91
2022-10-07T11:10:24.689Z,97829.81
2022-10-07T11:12:54.670Z,97815.41
2022-10-07T11:15:37.257Z,97812.63
2022-10-07T11:18:08.549Z,97808.47
2022-10-07T11:20:43.816Z,97804.38
2022-10-07T11:23:24.916Z,97796.19
2022-10-07T11:26:00.256Z,97789.44
2022-10-07T11:28:27.274Z,97785.03
2022-10-07T11:31:05.424Z,97776.75
2022-10-07T11:33:41.517Z,97768.03
2022-10-07T11:36:28.187Z,97769.56
2022-10-07T11:38:54.603Z,97759.41
2022-10-07T11:41:33.872Z,97752.63
2022-10-07T11:44:01.783Z,97747.19
2022-10-07T11:46:31.959Z,97747.66
2022-10-07T11:49:00.887Z,97745.00
2022-10-07T11:51:29.256Z,97726.47
2022-10-07T11:53:56.098Z,97722.03
2022-10-07T11:56:23.648Z,97720.88
2022-10-07T11:58:58.066Z,97723.56
2022-10-07T12:01:30.711Z,97710.22
2022-10-07T12:04:15.571Z,97711.59
2022-10-07T12:07:04.018Z,97711.09
2022-10-07T12:09:49.202Z,97702.88
2022-10-07T12:12:15.643Z,97705.06
2022-10-07T12:14:43.021Z,97698.69
2022-10-07T12:17:22.380Z,97692.22
2022-10-07T12:20:06.937Z,97676.56
2022-10-07T12:22:33.347Z,97685.00
2022-10-07T12:25:18.498Z,97674.88
2022-10-07T12:27:46.244Z,97680.78
2022-10-07T12:30:32.601Z,97668.28
2022-10-07T12:33:01.022Z,97664.53
2022-10-07T12:35:32.369Z,97671.44
2022-10-07T12:38:03.097Z,97665.88
2022-10-07T12:40:30.013Z,97653.50
2022-10-07T12:43:08.935Z,97659.03
2022-10-07T12:45:37.150Z,97652.50
2022-10-07T12:48:03.677Z,97647.94
2022-10-07T12:50:31.731Z,97649.91
2022-10-07T12:52:58.809Z,97637.63
2022-10-07T12:55:30.526Z,97632.78
2022-10-07T12:58:16.932Z,97633.69
2022-10-07T13:00:54.644Z,97627.31
2022-10-07T13:03:27.396Z,97610.66
2022-10-07T13:06:08.924Z,97611.03
2022-10-07T13:08:35.310Z,97606.50
2022-10-07T13:11:20.605Z,97609.50
2022-10-07T13:13:46.958Z,97609.53
2022-10-07T13:16:15.670Z,97605.50
2022-10-07T13:18:45.032Z,97603.06
2022-10-07T13:21:13.027Z,97605.66
2022-10-07T13:23:39.407Z,97596.69
2022-10-07T13:26:05.821Z,97593.91
2022-10-07T13:28:38.278Z,97600.25
2022-10-07T13:31:11.914Z,97590.91
2022-10-07T13:33:38.375Z,97594.06
2022-10-07T13:36:14.023Z,97590.69
2022-10-07T13:38:40.461Z,97583.78
2022-10-07T13:41:09.272Z,97574.94
2022-10-07T13:43:36.091Z,97573.56
2022-10-07T13:46:02.549Z,97565.06
2022-10-07T13:48:31.463Z,97576.00
2022-10-07T13:50:58.553Z,97565.22
2022-10-07T13:53:34.813Z,97567.81
2022-10-07T13:56:21.952Z,97555.94
2022-10-07T13:58:48.368Z,97562.50
2022-10-07T14:01:14.896Z,97555.69
2022-10-07T14:04:00.703Z,97562.19
2022-10-07T14:06:37.848Z,97550.13
2022-10-07T14:09:04.271Z,97541.91
2022-10-07T14:11:30.840Z,97545.47
2022-10-07T14:13:59.475Z,97537.34
2022-10-07T14:16:26.439Z,97537.75
2022-10-07T14:18:52.932Z,97541.66
2022-10-07T14:21:19.357Z,97528.75
2022-10-07T14:23:46.950Z,97528.72
2022-10-07T14:26:15.151Z,97519.22
2022-10-07T14:28:42.265Z,97523.38
2022-10-07T14:31:27.667Z,97513.31
2022-10-07T14:34:12.845Z,97514.91
2022-10-07T14:36:49.289Z,97516.09
2022-10-07T14:39:23.018Z,97510.91
2022-10-07T14:41:49.412Z,97513.78
2022-10-07T14:44:18.269Z,97511.03
2022-10-07T14:46:44.695Z,97501.00
2022-10-07T14:49:11.186Z,97505.09
2022-10-07T14:51:37.668Z,97493.47
2022-10-07T14:54:05.894Z,97498.22
2022-10-07T14:56:33.755Z,97495.41
2022-10-07T14:59:00.491Z,97490.13
2022-10-07T15:01:28.307Z,97482.59
2022-10-07T15:03:54.909Z,97477.59
2022-10-07T15:06:21.582Z,97480.97
2022-10-07T15:08:48.287Z,97478.53
2022-10-07T15:11:15.535Z,97479.31
2022-10-07T15:13:43.172Z,97477.91
2022-10-07T15:16:13.132Z,97466.34
2022-10-07T15:18:43.407Z,97479.00
2022-10-07T15:21:12.765Z,97470.03
2022-10-07T15:23:39.212Z,97467.16
2022-10-07T15:26:05.827Z,97467.28
2022-10-07T15:28:33.243Z,97459.44
2022-10-07T15:31:06.809Z,97452.59
2022-10-07T15:33:33.618Z,97459.66
2022-10-07T15:36:00.188Z,97451.09
2022-10-07T15:38:27.000Z,97460.13
2022-10-07T15:40:54.468Z,97443.81
2022-10-07T15:43:20.945Z,97451.38
2022-10-07T15:45:49.133Z,97451.19
2022-10-07T15:48:16.268Z,97449.75
2022-10-07T15:50:49.285Z,97441.78
2022-10-07T15:53:16.491Z,97441.34
2022-10-07T15:55:56.193Z,97435.22
2022-10-07T15:58:23.302Z,97442.19
2022-10-07T16:01:03.245Z,97443.78
2022-10-07T16:03:39.794Z,97437.63
2022-10-07T16:06:17.167Z,97438.81
2022-10-07T16:08:43.586Z,97434.31
2022-10-07T16:11:10.897Z,97433.88
2022-10-07T16:13:37.658Z,97437.13
2022-10-07T16:16:06.455Z,97443.44
2022-10-07T16:18:36.971Z,97437.00
2022-10-07T16:21:07.359Z,97441.00
2022-10-07T16:23:34.384Z,97435.00
2022-10-07T16:26:11.018Z,97431.50
2022-10-07T16:28:59.673Z,97435.91
2022-10-07T16:31:26.174Z,97428.13
2022-10-07T16:33:53.007Z,97426.81
2022-10-07T16:36:20.739Z,97429.19
2022-10-07T16:38:47.307Z,97428.50
2022-10-07T16:41:13.976Z,97430.69
2022-10-07T16:43:40.455Z,97427.28
2022-10-07T16:46:08.787Z,97424.69
2022-10-07T16:48:38.975Z,97423.91
2022-10-07T16:51:08.560Z,97422.69
2022-10-07T16:53:34.988Z,97415.56
2022-10-07T16:56:02.251Z,97417.34
2022-10-07T16:58:28.690Z,97422.06
2022-10-07T17:01:00.224Z,97415.34
2022-10-07T17:03:26.637Z,97408.34
2022-10-07T17:05:56.703Z,97413.00
2022-10-07T17:08:23.245Z,97421.72
2022-10-07T17:10:49.662Z,97419.53
2022-10-07T17:13:18.307Z,97424.38
2022-10-07T17:15:49.115Z,97422.34
2022-10-07T17:18:18.655Z,97419.19
2022-10-07T17:20:50.869Z,97417.81
2022-10-07T17:23:17.432Z,97420.03
2022-10-07T17:25:46.377Z,97425.47
2022-10-07T17:28:13.450Z,97429.94
2022-10-07T17:30:40.065Z,97430.66
2022-10-07T17:33:07.036Z,97432.31
2022-10-07T17:35:33.831Z,97426.59
2022-10-07T17:38:00.725Z,97429.56
2022-10-07T17:40:30.653Z,97425.81
2022-10-07T17:42:59.474Z,97412.97
2022-10-07T17:45:25.883Z,97413.69
2022-10-07T17:47:54.455Z,97413.69
2022-10-07T17:50:20.880Z,97412.28
2022-10-07T17:52:47.282Z,97411.22
2022-10-07T17:55:13.718Z,97416.41
2022-10-07T17:57:40.148Z,97393.75
2022-10-07T18:00:06.989Z,97398.44
2022-10-07T18:02:33.784Z,97388.63
2022-10-07T18:05:00.415Z,97392.47
2022-10-07T18:07:26.971Z,97386.84
2022-10-07T18:09:53.437Z,97395.31
2022-10-07T18:12:49.138Z,97393.63
2022-10-07T18:15:21.260Z,97406.72
2022-10-07T18:17:50.799Z,97405.63
2022-10-07T18:20:25.325Z,97399.47
2022-10-07T18:22:55.743Z,97398.56
2022-10-07T18:25:22.280Z,97399.41
2022-10-07T18:27:48.951Z,97400.72
2022-10-07T18:30:15.612Z,97391.38
2022-10-07T18:32:42.083Z,97394.50
2022-10-07T18:35:08.626Z,97401.53
2022-10-07T18:37:36.128Z,97398.13
2022-10-07T18:40:02.535Z,97398.28
2022-10-07T18:42:28.962Z,97398.41
2022-10-07T18:44:55.397Z,97391.84
2022-10-07T18:47:21.817Z,97377.69
2022-10-07T18:49:48.220Z,97385.59
2022-10-07T18:52:14.628Z,97381.50
2022-10-07T18:54:41.051Z,97391.88
2022-10-07T18:57:07.516Z,97385.13
2022-10-07T18:59:33.996Z,97380.69
2022-10-07T19:02:00.587Z,97385.44
2022-10-07T19:04:27.030Z,97382.69
2022-10-07T19:06:53.477Z,97378.72
2022-10-07T19:09:20.518Z,97385.97
2022-10-07T19:11:47.099Z,97384.31
2022-10-07T19:14:13.816Z,97388.09
2022-10-07T19:16:41.413Z,97390.22
2022-10-07T19:19:08.606Z,97394.38
2022-10-07T19:21:35.903Z,97380.88
2022-10-07T19:24:02.760Z,97383.66
2022-10-07T19:26:31.111Z,97387.13
2022-10-07T19:28:57.533Z,97381.22
2022-10-07T19:31:24.090Z,97390.09
2022-10-07T19:33:51.707Z,97388.78
2022-10-07T19:36:19.057Z,97383.50
2022-10-07T19:38:52.312Z,97379.72
2022-10-07T19:41:20.266Z,97364.78
2022-10-07T19:43:46.795Z,97370.69
2022-10-07T19:46:13.449Z,97374.00
2022-10-07T19:48:40.015Z,97366.75
2022-10-07T19:51:10.767Z,97376.28
2022-10-07T19:53:37.235Z,97370.81
2022-10-07T19:56:04.859Z,97368.03
2022-10-07T19:58:31.754Z,97362.09
2022-10-07T20:01:08.512Z,97364.72
2022-10-07T20:03:35.263Z,97365.53
2022-10-07T20:06:08.999Z,97373.47
2022-10-07T20:08:36.384Z,97372.13
2022-10-07T20:11:02.961Z,97365.72
2022-10-07T20:13:30.259Z,97372.63
2022-10-07T20:16:06.107Z,97368.31
2022-10-07T20:18:33.067Z,97369.25
2022-10-07T20:21:00.345Z,97372.69
2022-10-07T20:23:26.923Z,97374.31
2022-10-07T20:25:53.408Z,97377.97
2022-10-07T20:28:19.926Z,97365.47
2022-10-07T20:30:46.318Z,97368.06
2022-10-07T20:33:12.940Z,97366.44
2022-10-07T20:35:39.621Z,97361.66
2022-10-07T20:38:06.028Z,97368.41
2022-10-07T20:40:51.207Z,97364.22
2022-10-07T20:43:17.618Z,97369.31
2022-10-07T20:45:56.383Z,97354.88
2022-10-07T20:48:23.109Z,97361.66
2022-10-07T20:50:49.842Z,97360.66
2022-10-07T20:53:16.257Z,97359.19
2022-10-07T20:55:42.618Z,97355.41
2022-10-07T20:58:09.023Z,97353.78
2022-10-07T21:00:35.407Z,97358.41
2022-10-07T21:03:01.993Z,97354.94
2022-10-07T21:05:29.994Z,97362.69
2022-10-07T21:07:56.412Z,97358.78
2022-10-07T21:10:22.917Z,97356.19
2022-10-07T21:12:49.878Z,97357.00
2022-10-07T21:15:16.346Z,97360.69
2022-10-07T21:17:44.489Z,97354.31
2022-10-07T21:20:10.972Z,97349.53
2022-10-07T21:22:37.502Z,97353.00
2022-10-07T21:25:04.107Z,97350.41
2022-10-07T21:27:30.515Z,97346.78
2022-10-07T21:29:56.943Z,97347.78
2022-10-07T21:32:23.404Z,97345.78
2022-10-07T21:34:49.841Z,97346.97
2022-10-07T21:37:16.264Z,97343.84
2022-10-07T21:39:42.684Z,97340.56
2022-10-07T21:42:09.090Z,97343.53
2022-10-07T21:44:35.683Z,97347.16
2022-10-07T21:47:02.156Z,97340.91
2022-10-07T21:49:28.576Z,97337.81
2022-10-07T21:51:55.018Z,97346.19
2022-10-07T21:54:21.503Z,97338.81
2022-10-07T21:56:48.042Z,97333.88
2022-10-07T21:59:14.535Z,97336.53
2022-10-07T22:01:42.420Z,97334.22
2022-10-07T22:04:16.052Z,97334.72
2022-10-07T22:07:01.225Z,97330.59
2022-10-07T22:09:27.684Z,97327.66
2022-10-07T22:11:54.117Z,97330.25
2022-10-07T22:14:20.678Z,97325.50
2022-10-07T22:16:49.634Z,97325.00
2022-10-07T22:19:17.600Z,97317.72
2022-10-07T22:21:45.623Z,97312.09
2022-10-07T22:24:12.629Z,97321.47
2022-10-07T22:26:40.654Z,97323.56
2022-10-07T22:29:09.468Z,97326.56
2022-10-07T22:31:36.203Z,97319.66
2022-10-07T22:34:02.645Z,97319.31
2022-10-07T22:36:29.208Z,97315.03
2022-10-07T22:39:01.619Z,97313.56
2022-10-07T22:41:29.161Z,97313.75
2022-10-07T22:43:55.677Z,97310.94
2022-10-07T22:46:26.581Z,97311.59
2022-10-07T22:48:54.130Z,97310.13
2022-10-07T22:51:20.585Z,97305.69
2022-10-07T22:53:50.618Z,97302.56
2022-10-07T22:56:17.631Z,97304.22
2022-10-07T22:58:44.557Z,97297.31
2022-10-07T23:01:13.863Z,97296.63
2022-10-07T23:03:43.711Z,97294.69
2022-10-07T23:06:10.942Z,97290.13
2022-10-07T23:08:38.441Z,97288.13
2022-10-07T23:11:05.137Z,97293.06
2022-10-07T23:13:32.126Z,97283.22
2022-10-07T23:16:02.778Z,97290.28
2022-10-07T23:18:29.533Z,97287.50
2022-10-07T23:21:06.262Z,97288.66
2022-10-07T23:23:36.363Z,97287.34
2022-10-07T23:26:03.405Z,97286.38
2022-10-07T23:28:30.338Z,97290.50
2022-10-07T23:30:58.888Z,97280.00
2022-10-07T23:33:25.382Z,97278.84
2022-10-07T23:35:55.341Z,97281.66
2022-10-07T23:38:21.750Z,97285.88
2022-10-07T23:40:48.450Z,97279.16
2022-10-07T23:43:14.865Z,97285.25
2022-10-07T23:45:41.288Z,97276.38
2022-10-07T23:48:07.701Z,97277.34
2022-10-07T23:50:34.870Z,97267.31
2022-10-07T23:53:01.301Z,97266.66
2022-10-07T23:55:28.536Z,97268.44
2022-10-07T23:57:55.110Z,97266.47
